sensor_id;sensor_type;location;lat;lon;timestamp;temperature;humidity
15083;DHT22;7640;53.116;6.878;2023-10-09T00:01:05;15.40;99.90
15083;DHT22;7640;53.116;6.878;2023-10-09T00:03:40;15.40;99.90
15083;DHT22;7640;53.116;6.878;2023-10-09T00:06:13;15.40;99.90
15083;DHT22;7640;53.116;6.878;2023-10-09T00:08:45;15.40;99.90
15083;DHT22;7640;53.116;6.878;2023-10-09T00:11:18;15.40;99.90
15083;DHT22;7640;53.116;6.878;2023-10-09T00:13:48;15.40;99.90
15083;DHT22;7640;53.116;6.878;2023-10-09T00:16:25;15.50;99.90
15083;DHT22;7640;53.116;6.878;2023-10-09T00:19:03;15.40;99.90
15083;DHT22;7640;53.116;6.878;2023-10-09T00:21:44;15.40;99.90
15083;DHT22;7640;53.116;6.878;2023-10-09T00:24:15;15.40;99.90
15083;DHT22;7640;53.116;6.878;2023-10-09T00:26:50;15.40;99.90
15083;DHT22;7640;53.116;6.878;2023-10-09T00:29:23;15.40;99.90
15083;DHT22;7640;53.116;6.878;2023-10-09T00:31:55;15.40;99.90
15083;DHT22;7640;53.116;6.878;2023-10-09T00:34:40;15.40;99.90
15083;DHT22;7640;53.116;6.878;2023-10-09T00:37:09;15.40;99.90
15083;DHT22;7640;53.116;6.878;2023-10-09T00:39:44;15.40;99.90
15083;DHT22;7640;53.116;6.878;2023-10-09T00:42:15;15.50;99.90
15083;DHT22;7640;53.116;6.878;2023-10-09T00:44:54;15.40;99.90
15083;DHT22;7640;53.116;6.878;2023-10-09T00:47:23;15.50;99.90
15083;DHT22;7640;53.116;6.878;2023-10-09T00:50:03;15.50;99.90
15083;DHT22;7640;53.116;6.878;2023-10-09T00:52:39;15.50;99.90
15083;DHT22;7640;53.116;6.878;2023-10-09T00:55:13;15.50;99.90
15083;DHT22;7640;53.116;6.878;2023-10-09T00:57:45;15.50;99.90
15083;DHT22;7640;53.116;6.878;2023-10-09T01:00:24;15.50;99.90
15083;DHT22;7640;53.116;6.878;2023-10-09T01:03:14;15.50;99.90
15083;DHT22;7640;53.116;6.878;2023-10-09T01:05:48;15.50;99.90
15083;DHT22;7640;53.116;6.878;2023-10-09T01:08:25;15.50;99.90
15083;DHT22;7640;53.116;6.878;2023-10-09T01:10:59;15.50;99.90
15083;DHT22;7640;53.116;6.878;2023-10-09T01:13:36;15.60;99.90
15083;DHT22;7640;53.116;6.878;2023-10-09T01:16:21;15.50;99.90
15083;DHT22;7640;53.116;6.878;2023-10-09T01:18:52;15.60;99.90
15083;DHT22;7640;53.116;6.878;2023-10-09T01:21:25;15.60;99.90
15083;DHT22;7640;53.116;6.878;2023-10-09T01:23:55;15.60;99.90
15083;DHT22;7640;53.116;6.878;2023-10-09T01:26:39;15.60;99.90
15083;DHT22;7640;53.116;6.878;2023-10-09T01:29:13;15.60;99.90
15083;DHT22;7640;53.116;6.878;2023-10-09T01:31:53;15.60;99.90
15083;DHT22;7640;53.116;6.878;2023-10-09T01:34:24;15.60;99.90
15083;DHT22;7640;53.116;6.878;2023-10-09T01:37:07;15.60;99.90
15083;DHT22;7640;53.116;6.878;2023-10-09T01:39:42;15.60;99.90
15083;DHT22;7640;53.116;6.878;2023-10-09T01:42:12;15.60;99.90
15083;DHT22;7640;53.116;6.878;2023-10-09T01:44:51;15.60;99.90
15083;DHT22;7640;53.116;6.878;2023-10-09T01:47:22;15.60;99.90
15083;DHT22;7640;53.116;6.878;2023-10-09T01:49:52;15.60;99.90
15083;DHT22;7640;53.116;6.878;2023-10-09T01:52:21;15.70;99.90
15083;DHT22;7640;53.116;6.878;2023-10-09T01:54:51;15.70;99.90
15083;DHT22;7640;53.116;6.878;2023-10-09T01:57:20;15.70;99.90
15083;DHT22;7640;53.116;6.878;2023-10-09T01:59:52;15.60;99.90
15083;DHT22;7640;53.116;6.878;2023-10-09T02:02:23;15.60;99.90
15083;DHT22;7640;53.116;6.878;2023-10-09T02:05:02;15.60;99.90
15083;DHT22;7640;53.116;6.878;2023-10-09T02:07:38;15.60;99.90
15083;DHT22;7640;53.116;6.878;2023-10-09T02:10:13;15.60;99.90
15083;DHT22;7640;53.116;6.878;2023-10-09T02:12:59;15.60;99.90
15083;DHT22;7640;53.116;6.878;2023-10-09T02:15:37;15.60;99.90
15083;DHT22;7640;53.116;6.878;2023-10-09T02:18:16;15.60;99.90
15083;DHT22;7640;53.116;6.878;2023-10-09T02:21:05;15.60;99.90
15083;DHT22;7640;53.116;6.878;2023-10-09T02:23:40;15.60;99.90
15083;DHT22;7640;53.116;6.878;2023-10-09T02:26:14;15.50;99.90
15083;DHT22;7640;53.116;6.878;2023-10-09T02:28:53;15.50;99.90
15083;DHT22;7640;53.116;6.878;2023-10-09T02:31:27;15.60;99.90
15083;DHT22;7640;53.116;6.878;2023-10-09T02:34:05;15.50;99.90
15083;DHT22;7640;53.116;6.878;2023-10-09T02:36:39;15.50;99.90
15083;DHT22;7640;53.116;6.878;2023-10-09T02:39:16;15.50;99.90
15083;DHT22;7640;53.116;6.878;2023-10-09T02:41:51;15.50;99.90
15083;DHT22;7640;53.116;6.878;2023-10-09T02:44:25;15.50;99.90
15083;DHT22;7640;53.116;6.878;2023-10-09T02:46:56;15.50;99.90
15083;DHT22;7640;53.116;6.878;2023-10-09T02:49:27;15.40;99.90
15083;DHT22;7640;53.116;6.878;2023-10-09T02:51:56;15.40;99.90
15083;DHT22;7640;53.116;6.878;2023-10-09T02:54:25;15.40;99.90
15083;DHT22;7640;53.116;6.878;2023-10-09T02:57:03;15.40;99.90
15083;DHT22;7640;53.116;6.878;2023-10-09T02:59:35;15.40;99.90
15083;DHT22;7640;53.116;6.878;2023-10-09T03:02:05;15.40;99.90
15083;DHT22;7640;53.116;6.878;2023-10-09T03:04:36;15.30;99.90
15083;DHT22;7640;53.116;6.878;2023-10-09T03:07:06;15.30;99.90
15083;DHT22;7640;53.116;6.878;2023-10-09T03:09:34;15.30;99.90
15083;DHT22;7640;53.116;6.878;2023-10-09T03:12:04;15.30;99.90
15083;DHT22;7640;53.116;6.878;2023-10-09T03:14:37;15.30;99.90
15083;DHT22;7640;53.116;6.878;2023-10-09T03:17:07;15.30;99.90
15083;DHT22;7640;53.116;6.878;2023-10-09T03:19:41;15.30;99.90
15083;DHT22;7640;53.116;6.878;2023-10-09T03:22:11;15.30;99.90
15083;DHT22;7640;53.116;6.878;2023-10-09T03:24:40;15.30;99.90
15083;DHT22;7640;53.116;6.878;2023-10-09T03:27:17;15.30;99.90
15083;DHT22;7640;53.116;6.878;2023-10-09T03:29:46;15.30;99.90
15083;DHT22;7640;53.116;6.878;2023-10-09T03:32:17;15.30;99.90
15083;DHT22;7640;53.116;6.878;2023-10-09T03:34:48;15.40;99.90
15083;DHT22;7640;53.116;6.878;2023-10-09T03:37:18;15.40;99.90
15083;DHT22;7640;53.116;6.878;2023-10-09T03:40:01;15.30;99.90
15083;DHT22;7640;53.116;6.878;2023-10-09T03:42:34;15.40;99.90
15083;DHT22;7640;53.116;6.878;2023-10-09T03:45:04;15.40;99.90
15083;DHT22;7640;53.116;6.878;2023-10-09T03:47:40;15.40;99.90
15083;DHT22;7640;53.116;6.878;2023-10-09T03:50:11;15.40;99.90
15083;DHT22;7640;53.116;6.878;2023-10-09T03:52:56;15.50;99.90
15083;DHT22;7640;53.116;6.878;2023-10-09T03:55:24;15.50;99.90
15083;DHT22;7640;53.116;6.878;2023-10-09T03:57:55;15.50;99.90
15083;DHT22;7640;53.116;6.878;2023-10-09T04:00:28;15.60;99.90
15083;DHT22;7640;53.116;6.878;2023-10-09T04:02:58;15.60;99.90
15083;DHT22;7640;53.116;6.878;2023-10-09T04:05:29;15.60;99.90
15083;DHT22;7640;53.116;6.878;2023-10-09T04:07:58;15.70;99.90
15083;DHT22;7640;53.116;6.878;2023-10-09T04:10:29;15.70;99.90
15083;DHT22;7640;53.116;6.878;2023-10-09T04:13:21;15.70;99.90
15083;DHT22;7640;53.116;6.878;2023-10-09T04:15:53;15.70;99.90
15083;DHT22;7640;53.116;6.878;2023-10-09T04:18:22;15.70;99.90
15083;DHT22;7640;53.116;6.878;2023-10-09T04:21:02;15.80;99.90
15083;DHT22;7640;53.116;6.878;2023-10-09T04:23:46;15.80;99.90
15083;DHT22;7640;53.116;6.878;2023-10-09T04:26:33;15.80;99.90
15083;DHT22;7640;53.116;6.878;2023-10-09T04:29:05;15.80;99.90
15083;DHT22;7640;53.116;6.878;2023-10-09T04:31:37;15.80;99.90
15083;DHT22;7640;53.116;6.878;2023-10-09T04:34:06;15.80;99.90
15083;DHT22;7640;53.116;6.878;2023-10-09T04:36:54;15.80;99.90
15083;DHT22;7640;53.116;6.878;2023-10-09T04:39:27;15.80;99.90
15083;DHT22;7640;53.116;6.878;2023-10-09T04:42:13;15.80;99.90
15083;DHT22;7640;53.116;6.878;2023-10-09T04:45:06;15.80;99.90
15083;DHT22;7640;53.116;6.878;2023-10-09T04:48:06;15.90;99.90
15083;DHT22;7640;53.116;6.878;2023-10-09T04:50:36;15.80;99.90
15083;DHT22;7640;53.116;6.878;2023-10-09T04:53:14;15.90;99.90
15083;DHT22;7640;53.116;6.878;2023-10-09T04:55:55;15.90;99.90
15083;DHT22;7640;53.116;6.878;2023-10-09T04:58:31;15.90;99.90
15083;DHT22;7640;53.116;6.878;2023-10-09T05:01:06;15.90;99.90
15083;DHT22;7640;53.116;6.878;2023-10-09T05:03:42;15.90;99.90
15083;DHT22;7640;53.116;6.878;2023-10-09T05:06:19;15.90;99.90
15083;DHT22;7640;53.116;6.878;2023-10-09T05:09:08;15.90;99.90
15083;DHT22;7640;53.116;6.878;2023-10-09T05:11:42;15.90;99.90
15083;DHT22;7640;53.116;6.878;2023-10-09T05:14:20;15.90;99.90
15083;DHT22;7640;53.116;6.878;2023-10-09T05:17:06;16.00;99.90
15083;DHT22;7640;53.116;6.878;2023-10-09T05:19:34;16.00;99.90
15083;DHT22;7640;53.116;6.878;2023-10-09T05:22:22;16.00;99.90
15083;DHT22;7640;53.116;6.878;2023-10-09T05:25:07;16.00;99.90
15083;DHT22;7640;53.116;6.878;2023-10-09T05:27:43;16.10;99.90
15083;DHT22;7640;53.116;6.878;2023-10-09T05:30:18;16.10;99.90
15083;DHT22;7640;53.116;6.878;2023-10-09T05:32:54;16.10;99.90
15083;DHT22;7640;53.116;6.878;2023-10-09T05:35:27;16.10;99.90
15083;DHT22;7640;53.116;6.878;2023-10-09T05:38:09;16.10;99.90
15083;DHT22;7640;53.116;6.878;2023-10-09T05:40:53;16.10;99.90
15083;DHT22;7640;53.116;6.878;2023-10-09T05:43:41;16.10;99.90
15083;DHT22;7640;53.116;6.878;2023-10-09T05:46:28;16.10;99.90
15083;DHT22;7640;53.116;6.878;2023-10-09T05:49:03;16.10;99.90
15083;DHT22;7640;53.116;6.878;2023-10-09T05:51:37;16.20;99.90
15083;DHT22;7640;53.116;6.878;2023-10-09T05:54:20;16.20;99.90
15083;DHT22;7640;53.116;6.878;2023-10-09T05:57:12;16.20;99.90
15083;DHT22;7640;53.116;6.878;2023-10-09T05:59:58;16.20;99.90
15083;DHT22;7640;53.116;6.878;2023-10-09T06:02:52;16.20;99.90
15083;DHT22;7640;53.116;6.878;2023-10-09T06:05:38;16.20;99.90
15083;DHT22;7640;53.116;6.878;2023-10-09T06:08:18;16.20;99.90
15083;DHT22;7640;53.116;6.878;2023-10-09T06:10:52;16.20;99.90
15083;DHT22;7640;53.116;6.878;2023-10-09T06:13:34;16.20;99.90
15083;DHT22;7640;53.116;6.878;2023-10-09T06:16:12;16.30;99.90
15083;DHT22;7640;53.116;6.878;2023-10-09T06:19:09;16.30;99.90
15083;DHT22;7640;53.116;6.878;2023-10-09T06:21:41;16.30;99.90
15083;DHT22;7640;53.116;6.878;2023-10-09T06:24:57;16.30;99.90
15083;DHT22;7640;53.116;6.878;2023-10-09T06:27:35;16.30;99.90
15083;DHT22;7640;53.116;6.878;2023-10-09T06:30:19;16.30;99.90
15083;DHT22;7640;53.116;6.878;2023-10-09T06:32:53;16.40;99.90
15083;DHT22;7640;53.116;6.878;2023-10-09T06:35:47;16.40;99.90
15083;DHT22;7640;53.116;6.878;2023-10-09T06:38:21;16.40;99.90
15083;DHT22;7640;53.116;6.878;2023-10-09T06:41:00;16.40;99.90
15083;DHT22;7640;53.116;6.878;2023-10-09T06:43:58;16.50;99.90
15083;DHT22;7640;53.116;6.878;2023-10-09T06:46:38;16.40;99.90
15083;DHT22;7640;53.116;6.878;2023-10-09T06:49:19;16.40;99.90
15083;DHT22;7640;53.116;6.878;2023-10-09T06:51:56;16.50;99.90
15083;DHT22;7640;53.116;6.878;2023-10-09T06:54:42;16.50;99.90
15083;DHT22;7640;53.116;6.878;2023-10-09T06:57:17;16.50;99.90
15083;DHT22;7640;53.116;6.878;2023-10-09T07:00:11;16.50;99.90
15083;DHT22;7640;53.116;6.878;2023-10-09T07:02:59;16.50;99.90
15083;DHT22;7640;53.116;6.878;2023-10-09T07:05:38;16.60;99.90
15083;DHT22;7640;53.116;6.878;2023-10-09T07:08:27;16.60;99.90
15083;DHT22;7640;53.116;6.878;2023-10-09T07:11:04;16.60;99.90
15083;DHT22;7640;53.116;6.878;2023-10-09T07:14:17;16.60;99.90
15083;DHT22;7640;53.116;6.878;2023-10-09T07:17:20;16.60;99.90
15083;DHT22;7640;53.116;6.878;2023-10-09T07:19:55;16.60;99.90
15083;DHT22;7640;53.116;6.878;2023-10-09T07:22:39;16.70;99.90
15083;DHT22;7640;53.116;6.878;2023-10-09T07:25:20;16.70;99.90
15083;DHT22;7640;53.116;6.878;2023-10-09T07:28:05;16.70;99.90
15083;DHT22;7640;53.116;6.878;2023-10-09T07:30:45;16.60;99.90
15083;DHT22;7640;53.116;6.878;2023-10-09T07:33:13;16.70;99.90
15083;DHT22;7640;53.116;6.878;2023-10-09T07:35:47;16.70;99.90
15083;DHT22;7640;53.116;6.878;2023-10-09T07:38:17;16.70;99.90
15083;DHT22;7640;53.116;6.878;2023-10-09T07:40:49;16.80;99.90
15083;DHT22;7640;53.116;6.878;2023-10-09T07:43:24;16.80;99.90
15083;DHT22;7640;53.116;6.878;2023-10-09T07:45:56;16.80;99.90
15083;DHT22;7640;53.116;6.878;2023-10-09T07:48:41;16.90;99.90
15083;DHT22;7640;53.116;6.878;2023-10-09T07:51:21;16.90;99.90
15083;DHT22;7640;53.116;6.878;2023-10-09T07:53:59;16.90;99.90
15083;DHT22;7640;53.116;6.878;2023-10-09T07:56:34;16.90;99.90
15083;DHT22;7640;53.116;6.878;2023-10-09T07:59:08;16.90;99.90
15083;DHT22;7640;53.116;6.878;2023-10-09T08:01:40;17.00;99.90
15083;DHT22;7640;53.116;6.878;2023-10-09T08:04:19;17.00;99.90
15083;DHT22;7640;53.116;6.878;2023-10-09T08:07:07;17.00;99.90
15083;DHT22;7640;53.116;6.878;2023-10-09T08:09:56;17.00;99.90
15083;DHT22;7640;53.116;6.878;2023-10-09T08:12:40;17.00;99.90
15083;DHT22;7640;53.116;6.878;2023-10-09T08:15:23;17.00;99.90
15083;DHT22;7640;53.116;6.878;2023-10-09T08:17:56;17.00;99.90
15083;DHT22;7640;53.116;6.878;2023-10-09T08:20:31;17.00;99.90
15083;DHT22;7640;53.116;6.878;2023-10-09T08:23:19;17.00;99.90
15083;DHT22;7640;53.116;6.878;2023-10-09T08:25:59;17.10;99.90
15083;DHT22;7640;53.116;6.878;2023-10-09T08:28:39;17.10;99.90
15083;DHT22;7640;53.116;6.878;2023-10-09T08:31:10;17.10;99.90
15083;DHT22;7640;53.116;6.878;2023-10-09T08:34:02;17.10;99.90
15083;DHT22;7640;53.116;6.878;2023-10-09T08:36:35;17.10;99.90
15083;DHT22;7640;53.116;6.878;2023-10-09T08:39:06;17.10;99.90
15083;DHT22;7640;53.116;6.878;2023-10-09T08:41:44;17.10;99.90
15083;DHT22;7640;53.116;6.878;2023-10-09T08:44:19;17.10;99.90
15083;DHT22;7640;53.116;6.878;2023-10-09T08:46:53;17.10;99.90
15083;DHT22;7640;53.116;6.878;2023-10-09T08:49:26;17.10;99.90
15083;DHT22;7640;53.116;6.878;2023-10-09T08:51:56;17.10;99.90
15083;DHT22;7640;53.116;6.878;2023-10-09T08:54:32;17.10;99.90
15083;DHT22;7640;53.116;6.878;2023-10-09T08:57:01;17.20;99.90
15083;DHT22;7640;53.116;6.878;2023-10-09T08:59:30;17.20;99.90
15083;DHT22;7640;53.116;6.878;2023-10-09T09:02:03;17.20;99.90
15083;DHT22;7640;53.116;6.878;2023-10-09T09:04:34;17.20;99.90
15083;DHT22;7640;53.116;6.878;2023-10-09T09:07:06;17.20;99.90
15083;DHT22;7640;53.116;6.878;2023-10-09T09:09:36;17.20;99.90
15083;DHT22;7640;53.116;6.878;2023-10-09T09:12:05;17.20;99.90
15083;DHT22;7640;53.116;6.878;2023-10-09T09:14:38;17.20;99.90
15083;DHT22;7640;53.116;6.878;2023-10-09T09:17:07;17.30;99.90
15083;DHT22;7640;53.116;6.878;2023-10-09T09:19:38;17.20;99.90
15083;DHT22;7640;53.116;6.878;2023-10-09T09:22:09;17.30;99.90
15083;DHT22;7640;53.116;6.878;2023-10-09T09:24:57;17.30;99.90
15083;DHT22;7640;53.116;6.878;2023-10-09T09:27:46;17.40;99.90
15083;DHT22;7640;53.116;6.878;2023-10-09T09:30:23;17.40;99.90
15083;DHT22;7640;53.116;6.878;2023-10-09T09:33:00;17.40;99.90
15083;DHT22;7640;53.116;6.878;2023-10-09T09:35:58;17.50;99.90
15083;DHT22;7640;53.116;6.878;2023-10-09T09:38:30;17.50;99.90
15083;DHT22;7640;53.116;6.878;2023-10-09T09:41:11;17.50;99.90
15083;DHT22;7640;53.116;6.878;2023-10-09T09:43:53;17.50;99.90
15083;DHT22;7640;53.116;6.878;2023-10-09T09:46:24;17.50;99.90
15083;DHT22;7640;53.116;6.878;2023-10-09T09:49:01;17.50;99.90
15083;DHT22;7640;53.116;6.878;2023-10-09T09:51:33;17.50;99.90
15083;DHT22;7640;53.116;6.878;2023-10-09T09:54:03;17.50;99.90
15083;DHT22;7640;53.116;6.878;2023-10-09T09:56:40;17.50;99.90
15083;DHT22;7640;53.116;6.878;2023-10-09T09:59:10;17.50;99.90
15083;DHT22;7640;53.116;6.878;2023-10-09T10:01:49;17.60;99.90
15083;DHT22;7640;53.116;6.878;2023-10-09T10:04:28;17.60;99.90
15083;DHT22;7640;53.116;6.878;2023-10-09T10:07:06;17.70;99.90
15083;DHT22;7640;53.116;6.878;2023-10-09T10:09:38;17.70;99.90
15083;DHT22;7640;53.116;6.878;2023-10-09T10:12:11;17.80;99.90
15083;DHT22;7640;53.116;6.878;2023-10-09T10:14:54;17.80;99.90
15083;DHT22;7640;53.116;6.878;2023-10-09T10:17:26;17.90;99.90
15083;DHT22;7640;53.116;6.878;2023-10-09T10:20:03;17.90;99.90
15083;DHT22;7640;53.116;6.878;2023-10-09T10:23:15;17.90;99.90
15083;DHT22;7640;53.116;6.878;2023-10-09T10:25:46;17.80;99.90
15083;DHT22;7640;53.116;6.878;2023-10-09T10:28:20;17.80;99.90
15083;DHT22;7640;53.116;6.878;2023-10-09T10:31:05;17.80;99.90
15083;DHT22;7640;53.116;6.878;2023-10-09T10:34:03;17.80;99.90
15083;DHT22;7640;53.116;6.878;2023-10-09T10:36:37;17.80;99.90
15083;DHT22;7640;53.116;6.878;2023-10-09T10:39:11;17.70;99.90
15083;DHT22;7640;53.116;6.878;2023-10-09T10:41:54;17.70;99.90
15083;DHT22;7640;53.116;6.878;2023-10-09T10:44:30;17.70;99.90
15083;DHT22;7640;53.116;6.878;2023-10-09T10:47:05;17.70;99.90
15083;DHT22;7640;53.116;6.878;2023-10-09T10:49:49;17.70;99.90
15083;DHT22;7640;53.116;6.878;2023-10-09T10:52:26;17.70;99.90
15083;DHT22;7640;53.116;6.878;2023-10-09T10:55:11;17.70;99.90
15083;DHT22;7640;53.116;6.878;2023-10-09T10:58:15;17.70;99.90
15083;DHT22;7640;53.116;6.878;2023-10-09T11:00:55;17.70;99.90
15083;DHT22;7640;53.116;6.878;2023-10-09T11:03:42;17.70;99.90
15083;DHT22;7640;53.116;6.878;2023-10-09T11:06:27;17.70;99.90
15083;DHT22;7640;53.116;6.878;2023-10-09T11:09:08;17.70;99.90
15083;DHT22;7640;53.116;6.878;2023-10-09T11:11:49;17.80;99.90
15083;DHT22;7640;53.116;6.878;2023-10-09T11:14:23;17.80;99.90
15083;DHT22;7640;53.116;6.878;2023-10-09T11:16:54;17.80;99.90
15083;DHT22;7640;53.116;6.878;2023-10-09T11:19:26;17.80;99.90
15083;DHT22;7640;53.116;6.878;2023-10-09T11:21:59;17.80;99.90
15083;DHT22;7640;53.116;6.878;2023-10-09T11:24:48;17.80;99.90
15083;DHT22;7640;53.116;6.878;2023-10-09T11:27:40;17.80;99.90
15083;DHT22;7640;53.116;6.878;2023-10-09T11:30:18;17.80;99.90
15083;DHT22;7640;53.116;6.878;2023-10-09T11:33:07;17.80;99.90
15083;DHT22;7640;53.116;6.878;2023-10-09T11:35:41;17.80;99.90
15083;DHT22;7640;53.116;6.878;2023-10-09T11:38:24;17.70;99.90
15083;DHT22;7640;53.116;6.878;2023-10-09T11:40:55;17.80;99.90
15083;DHT22;7640;53.116;6.878;2023-10-09T11:43:47;17.80;99.90
15083;DHT22;7640;53.116;6.878;2023-10-09T11:46:20;17.90;99.90
15083;DHT22;7640;53.116;6.878;2023-10-09T11:49:08;17.90;99.90
15083;DHT22;7640;53.116;6.878;2023-10-09T11:52:06;18.00;99.90
15083;DHT22;7640;53.116;6.878;2023-10-09T11:54:53;18.10;99.90
15083;DHT22;7640;53.116;6.878;2023-10-09T11:57:24;18.10;99.90
15083;DHT22;7640;53.116;6.878;2023-10-09T12:00:00;18.20;99.90
15083;DHT22;7640;53.116;6.878;2023-10-09T12:02:33;18.20;99.90
15083;DHT22;7640;53.116;6.878;2023-10-09T12:05:13;18.10;99.90
15083;DHT22;7640;53.116;6.878;2023-10-09T12:07:44;18.10;99.90
15083;DHT22;7640;53.116;6.878;2023-10-09T12:10:13;18.10;99.90
15083;DHT22;7640;53.116;6.878;2023-10-09T12:12:51;18.10;99.90
15083;DHT22;7640;53.116;6.878;2023-10-09T12:15:20;18.10;99.90
15083;DHT22;7640;53.116;6.878;2023-10-09T12:17:49;18.00;99.90
15083;DHT22;7640;53.116;6.878;2023-10-09T12:20:22;18.00;99.90
15083;DHT22;7640;53.116;6.878;2023-10-09T12:22:59;18.10;99.90
15083;DHT22;7640;53.116;6.878;2023-10-09T12:25:28;18.10;99.90
15083;DHT22;7640;53.116;6.878;2023-10-09T12:27:59;18.10;99.90
15083;DHT22;7640;53.116;6.878;2023-10-09T12:30:29;18.00;99.90
15083;DHT22;7640;53.116;6.878;2023-10-09T12:32:59;18.00;99.90
15083;DHT22;7640;53.116;6.878;2023-10-09T12:35:29;17.90;99.90
15083;DHT22;7640;53.116;6.878;2023-10-09T12:38:01;17.90;99.90
15083;DHT22;7640;53.116;6.878;2023-10-09T12:40:37;17.80;99.90
15083;DHT22;7640;53.116;6.878;2023-10-09T12:43:09;17.80;99.90
15083;DHT22;7640;53.116;6.878;2023-10-09T12:45:42;17.80;99.90
15083;DHT22;7640;53.116;6.878;2023-10-09T12:48:12;17.80;99.90
15083;DHT22;7640;53.116;6.878;2023-10-09T12:50:43;17.80;99.90
15083;DHT22;7640;53.116;6.878;2023-10-09T12:53:12;17.80;99.90
15083;DHT22;7640;53.116;6.878;2023-10-09T12:55:46;17.80;99.90
15083;DHT22;7640;53.116;6.878;2023-10-09T12:58:14;17.90;99.90
15083;DHT22;7640;53.116;6.878;2023-10-09T13:00:45;17.90;99.90
15083;DHT22;7640;53.116;6.878;2023-10-09T13:03:16;17.90;99.90
15083;DHT22;7640;53.116;6.878;2023-10-09T13:05:48;17.90;99.90
15083;DHT22;7640;53.116;6.878;2023-10-09T13:08:24;17.90;99.90
15083;DHT22;7640;53.116;6.878;2023-10-09T13:11:02;17.90;99.90
15083;DHT22;7640;53.116;6.878;2023-10-09T13:13:39;18.00;99.90
15083;DHT22;7640;53.116;6.878;2023-10-09T13:16:10;18.00;99.90
15083;DHT22;7640;53.116;6.878;2023-10-09T13:18:47;17.90;99.90
15083;DHT22;7640;53.116;6.878;2023-10-09T13:21:20;17.90;99.90
15083;DHT22;7640;53.116;6.878;2023-10-09T13:23:50;18.00;99.90
15083;DHT22;7640;53.116;6.878;2023-10-09T13:26:22;18.00;99.90
15083;DHT22;7640;53.116;6.878;2023-10-09T13:29:01;18.00;99.90
15083;DHT22;7640;53.116;6.878;2023-10-09T13:31:31;18.00;99.90
15083;DHT22;7640;53.116;6.878;2023-10-09T13:34:02;18.00;99.90
15083;DHT22;7640;53.116;6.878;2023-10-09T13:36:35;18.00;99.90
15083;DHT22;7640;53.116;6.878;2023-10-09T13:39:05;18.00;99.90
15083;DHT22;7640;53.116;6.878;2023-10-09T13:41:52;18.00;99.90
15083;DHT22;7640;53.116;6.878;2023-10-09T13:44:28;18.00;99.90
15083;DHT22;7640;53.116;6.878;2023-10-09T13:46:58;18.10;99.90
15083;DHT22;7640;53.116;6.878;2023-10-09T13:49:29;18.10;99.90
15083;DHT22;7640;53.116;6.878;2023-10-09T13:52:00;18.10;99.90
15083;DHT22;7640;53.116;6.878;2023-10-09T13:54:30;18.10;99.90
15083;DHT22;7640;53.116;6.878;2023-10-09T13:57:07;18.10;99.90
15083;DHT22;7640;53.116;6.878;2023-10-09T13:59:38;18.10;99.90
15083;DHT22;7640;53.116;6.878;2023-10-09T14:02:10;18.20;99.90
15083;DHT22;7640;53.116;6.878;2023-10-09T14:04:45;18.20;99.90
15083;DHT22;7640;53.116;6.878;2023-10-09T14:07:16;18.20;99.90
15083;DHT22;7640;53.116;6.878;2023-10-09T14:09:47;18.20;99.90
15083;DHT22;7640;53.116;6.878;2023-10-09T14:12:35;18.20;99.90
15083;DHT22;7640;53.116;6.878;2023-10-09T14:15:08;18.10;99.90
15083;DHT22;7640;53.116;6.878;2023-10-09T14:17:44;18.10;99.90
15083;DHT22;7640;53.116;6.878;2023-10-09T14:20:14;18.10;99.90
15083;DHT22;7640;53.116;6.878;2023-10-09T14:23:00;18.10;99.90
15083;DHT22;7640;53.116;6.878;2023-10-09T14:25:35;18.00;99.90
15083;DHT22;7640;53.116;6.878;2023-10-09T14:28:07;18.00;99.90
15083;DHT22;7640;53.116;6.878;2023-10-09T14:30:36;18.00;99.90
15083;DHT22;7640;53.116;6.878;2023-10-09T14:33:10;18.00;99.90
15083;DHT22;7640;53.116;6.878;2023-10-09T14:35:50;18.00;99.90
15083;DHT22;7640;53.116;6.878;2023-10-09T14:38:21;18.00;99.90
15083;DHT22;7640;53.116;6.878;2023-10-09T14:40:54;18.00;99.90
15083;DHT22;7640;53.116;6.878;2023-10-09T14:43:27;18.00;99.90
15083;DHT22;7640;53.116;6.878;2023-10-09T14:46:00;18.00;99.90
15083;DHT22;7640;53.116;6.878;2023-10-09T14:48:32;18.00;99.90
15083;DHT22;7640;53.116;6.878;2023-10-09T14:51:04;18.00;99.90
15083;DHT22;7640;53.116;6.878;2023-10-09T14:53:35;17.90;99.90
15083;DHT22;7640;53.116;6.878;2023-10-09T14:56:04;17.90;99.90
15083;DHT22;7640;53.116;6.878;2023-10-09T14:58:36;17.80;99.90
15083;DHT22;7640;53.116;6.878;2023-10-09T15:01:10;17.70;99.90
15083;DHT22;7640;53.116;6.878;2023-10-09T15:03:42;17.70;99.90
15083;DHT22;7640;53.116;6.878;2023-10-09T15:06:14;17.70;99.90
15083;DHT22;7640;53.116;6.878;2023-10-09T15:08:45;17.70;99.90
15083;DHT22;7640;53.116;6.878;2023-10-09T15:11:16;17.70;99.90
15083;DHT22;7640;53.116;6.878;2023-10-09T15:13:45;17.70;99.90
15083;DHT22;7640;53.116;6.878;2023-10-09T15:16:14;17.70;99.90
15083;DHT22;7640;53.116;6.878;2023-10-09T15:18:42;17.70;99.90
15083;DHT22;7640;53.116;6.878;2023-10-09T15:21:11;17.70;99.90
15083;DHT22;7640;53.116;6.878;2023-10-09T15:23:40;17.80;99.90
15083;DHT22;7640;53.116;6.878;2023-10-09T15:26:11;17.80;99.90
15083;DHT22;7640;53.116;6.878;2023-10-09T15:28:44;17.80;99.90
15083;DHT22;7640;53.116;6.878;2023-10-09T15:31:13;17.80;99.90
15083;DHT22;7640;53.116;6.878;2023-10-09T15:33:43;17.80;99.90
15083;DHT22;7640;53.116;6.878;2023-10-09T15:36:15;17.80;99.90
15083;DHT22;7640;53.116;6.878;2023-10-09T15:38:47;17.80;99.90
15083;DHT22;7640;53.116;6.878;2023-10-09T15:41:18;17.80;99.90
15083;DHT22;7640;53.116;6.878;2023-10-09T15:43:48;17.80;99.90
15083;DHT22;7640;53.116;6.878;2023-10-09T15:46:18;17.80;99.90
15083;DHT22;7640;53.116;6.878;2023-10-09T15:48:49;17.90;99.90
15083;DHT22;7640;53.116;6.878;2023-10-09T15:51:20;17.90;99.90
15083;DHT22;7640;53.116;6.878;2023-10-09T15:53:49;17.90;99.90
15083;DHT22;7640;53.116;6.878;2023-10-09T15:56:20;17.90;99.90
15083;DHT22;7640;53.116;6.878;2023-10-09T15:58:49;17.90;99.90
15083;DHT22;7640;53.116;6.878;2023-10-09T16:01:21;17.90;99.90
15083;DHT22;7640;53.116;6.878;2023-10-09T16:03:50;17.90;99.90
15083;DHT22;7640;53.116;6.878;2023-10-09T16:06:20;17.90;99.90
15083;DHT22;7640;53.116;6.878;2023-10-09T16:08:54;17.90;99.90
15083;DHT22;7640;53.116;6.878;2023-10-09T16:11:24;17.90;99.90
15083;DHT22;7640;53.116;6.878;2023-10-09T16:13:53;17.90;99.90
15083;DHT22;7640;53.116;6.878;2023-10-09T16:16:25;17.80;99.90
15083;DHT22;7640;53.116;6.878;2023-10-09T16:18:56;17.80;99.90
15083;DHT22;7640;53.116;6.878;2023-10-09T16:21:25;17.80;99.90
15083;DHT22;7640;53.116;6.878;2023-10-09T16:23:54;17.70;99.90
15083;DHT22;7640;53.116;6.878;2023-10-09T16:26:27;17.70;99.90
15083;DHT22;7640;53.116;6.878;2023-10-09T16:29:01;17.60;99.90
15083;DHT22;7640;53.116;6.878;2023-10-09T16:31:30;17.60;99.90
15083;DHT22;7640;53.116;6.878;2023-10-09T16:34:07;17.60;99.90
15083;DHT22;7640;53.116;6.878;2023-10-09T16:36:36;17.50;99.90
15083;DHT22;7640;53.116;6.878;2023-10-09T16:39:05;17.50;99.90
15083;DHT22;7640;53.116;6.878;2023-10-09T16:41:47;17.50;99.90